WetterOnline ( https://www.wetteronline.de )

Wetter aktuell Heiligenstadt

Aktuelles Wetter: Leinefelde (356m)

6-stündlich | Neueste Meldungen
Ortszeit Temperatur Wetter
Mi, 23.09. 20:00 14.4° C wolkenlos
Mi, 23.09. 14:00 21.0° C wolkig
Mi, 23.09. 8:00 16.5° C bewölkt
Mi, 23.09. 2:00 15.3° C wolkenlos
Di, 22.09. 20:00 18.9° C wolkenlos
Di, 22.09. 14:00 23.7° C wolkenlos
Di, 22.09. 8:00 11.5° C wolkenlos
Di, 22.09. 2:00 13.3° C wolkenlos
Ortszeit Temperatur Wetter
Do, 24.09. 0:00 13.6° C wolkig
Mi, 23.09. 23:30 13.8° C leicht bewölkt
Mi, 23.09. 23:20 13.8° C leicht bewölkt
Mi, 23.09. 23:10 14.1° C bedeckt
Mi, 23.09. 23:00 13.3° C leicht bewölkt
Mi, 23.09. 22:50 13.3° C leicht bewölkt
Mi, 23.09. 22:30 13.9° C fast wolkenlos
Mi, 23.09. 22:00 13.7° C leicht bewölkt
Mi, 23.09. 21:30 13.1° C wolkig
Mi, 23.09. 21:00 12.9° C leicht bewölkt
Mi, 23.09. 20:30 14.5° C fast wolkenlos
Ortszeit Relative Feuchte Sichtweite
Mi, 23.09. 20:00 77% 40 km
Mi, 23.09. 14:00 46% 40 km
Mi, 23.09. 8:00 67% 40 km
Mi, 23.09. 2:00 67% 40 km
Di, 22.09. 20:00 54% 30 km
Di, 22.09. 14:00 36% 40 km
Di, 22.09. 8:00 83% 27 km
Di, 22.09. 2:00 73% 40 km
Ortszeit Relative Feuchte Sichtweite
Do, 24.09. 0:00 96% 45 km
Mi, 23.09. 23:30 92% 45 km
Mi, 23.09. 23:20 92% -
Mi, 23.09. 23:10 93% -
Mi, 23.09. 23:00 95% 40 km
Mi, 23.09. 22:50 95% -
Mi, 23.09. 22:30 95% 40 km
Mi, 23.09. 22:00 92% 40 km
Mi, 23.09. 21:30 93% 50 km
Mi, 23.09. 21:00 92% 40 km
Mi, 23.09. 20:30 88% 45 km
Ortszeit Niederschlagsmenge Niederschlagsart
Mi, 23.09. 20:00 0.0 l/m2 in 12 Std. -
Mi, 23.09. 14:00 0.0 l/m2 in 6 Std. -
Mi, 23.09. 8:00 0.0 l/m2 in 12 Std. -
Mi, 23.09. 2:00 0.0 l/m2 in 6 Std. -
Di, 22.09. 20:00 0.0 l/m2 in 12 Std. -
Di, 22.09. 14:00 0.0 l/m2 in 6 Std. -
Di, 22.09. 8:00 0.0 l/m2 in 12 Std. -
Di, 22.09. 2:00 0.0 l/m2 in 6 Std. -
Ortszeit Niederschlagsmenge Niederschlagsart
Do, 24.09. 0:00 0.0 l/m2 in 1 Std. -
Mi, 23.09. 23:30 0.0 l/m2 in 1 Std. -
Mi, 23.09. 23:20 keine Meldung -
Mi, 23.09. 23:10 keine Meldung -
Mi, 23.09. 23:00 0.0 l/m2 in 1 Std. -
Mi, 23.09. 22:50 keine Meldung -
Mi, 23.09. 22:30 0.0 l/m2 in 1 Std. -
Mi, 23.09. 22:00 0.0 l/m2 in 1 Std. -
Mi, 23.09. 21:30 0.0 l/m2 in 1 Std. -
Mi, 23.09. 21:00 0.0 l/m2 in 1 Std. -
Mi, 23.09. 20:30 0.0 l/m2 in 1 Std. -
Ortszeit Stärke Spitze Richtung
km/h Bft. km/h Grad Sektor
Mi, 23.09. 20:00 11 2 29 220° SW
Mi, 23.09. 14:00 7 2 22 290° W
Mi, 23.09. 8:00 2 1 11 210° SW
Mi, 23.09. 2:00 2 1 7 180° S
Di, 22.09. 20:00 4 1 25 90° O
Di, 22.09. 14:00 9 2 20 210° SW
Di, 22.09. 8:00 0 0 7 - -
Di, 22.09. 2:00 0 0 7 - -
Ortszeit Stärke Spitze Richtung
km/h Bft. km/h Grad Sektor
Do, 24.09. 0:00 11 2 25 200° S
Mi, 23.09. 23:30 13 3 22 210° SW
Mi, 23.09. 23:20 13 3 - 210° SW
Mi, 23.09. 23:10 11 2 - 200° S
Mi, 23.09. 23:00 11 2 22 210° SW
Mi, 23.09. 22:50 11 2 - 210° SW
Mi, 23.09. 22:30 11 2 22 200° S
Mi, 23.09. 22:00 13 3 20 200° S
Mi, 23.09. 21:30 6 1 15 200° S
Mi, 23.09. 21:00 7 2 22 200° S
Mi, 23.09. 20:30 11 2 20 210° SW
Ortszeit Untergrenze Bedeckung Gattung
total tief tief mittel hoch
Mi, 23.09. 20:00 10500 m 0/8 0/8 - - -
Mi, 23.09. 14:00 3900 m 5/8 5/8 - - -
Mi, 23.09. 8:00 2400 m 8/8 6/8 - - -
Mi, 23.09. 2:00 - 0/8 0/8 - - -
Di, 22.09. 20:00 - 0/8 0/8 - - -
Di, 22.09. 14:00 - 0/8 0/8 - - -
Di, 22.09. 8:00 - 0/8 0/8 - - -
Di, 22.09. 2:00 - 0/8 0/8 - - -
Ortszeit Bedeckungsgrad in Achtel und Wolkenuntergrenze
Do, 24.09. 0:00 7(8400m)
Mi, 23.09. 23:30 2(300m) 4(8700m)
Mi, 23.09. 23:20 2(300m)
Mi, 23.09. 23:10 9 9 9
Mi, 23.09. 23:00 1(360m) 2(9000m)
Mi, 23.09. 22:50 1(360m) 2(9000m)
Mi, 23.09. 22:30 1(420m) 2(9000m)
Mi, 23.09. 22:00 3(9000m)
Mi, 23.09. 21:30 2(240m) 3(360m) 9(9000m)
Mi, 23.09. 21:00 6(9000m) 6(10500m) 5(10500m)
Mi, 23.09. 20:30 1(10500m)
Ortszeit Luftdruck NN (hPa) Tendenz (hPa in 3 Std.)
Mi, 23.09. 20:00 1005 - 0,2
Mi, 23.09. 14:00 1005 - 0,4
Mi, 23.09. 8:00 1006 - 0,1
Mi, 23.09. 2:00 1007 - 0,7
Di, 22.09. 20:00 1007 - 1,3
Di, 22.09. 14:00 1010 - 1,1
Di, 22.09. 8:00 1013 0,0
Di, 22.09. 2:00 1014 - 1,1
Ortszeit Luftdruck NN (hPa) Tendenz (hPa in 3 Std.)
Do, 24.09. 0:00 1004 - 0,5
Mi, 23.09. 23:30 1005 - 0,2
Mi, 23.09. 23:20 1005 keine Meldung
Mi, 23.09. 23:10 1005 keine Meldung
Mi, 23.09. 23:00 1005 0,0
Mi, 23.09. 22:50 1005 keine Meldung
Mi, 23.09. 22:30 1005 + 0,2
Mi, 23.09. 22:00 1005 + 0,3
Mi, 23.09. 21:30 1005 + 0,2
Mi, 23.09. 21:00 1005 + 0,2
Mi, 23.09. 20:30 1005 - 0,2
Ortszeit Schneehöhe (cm)
Mi, 23.09. 20:00 -
Mi, 23.09. 14:00 -
Mi, 23.09. 8:00 -
Mi, 23.09. 2:00 -
Di, 22.09. 20:00 -
Di, 22.09. 14:00 -
Di, 22.09. 8:00 -
Di, 22.09. 2:00 -
Ortszeit Schneehöhe (cm)
Do, 24.09. 0:00 -
Mi, 23.09. 23:30 -
Mi, 23.09. 23:20 -
Mi, 23.09. 23:10 -
Mi, 23.09. 23:00 -
Mi, 23.09. 22:50 -
Mi, 23.09. 22:30 -
Mi, 23.09. 22:00 -
Mi, 23.09. 21:30 -
Mi, 23.09. 21:00 -
Mi, 23.09. 20:30 -
Link zu dieser Seite / Seite empfehlen

Das Wetter in ...